sensor_id;sensor_type;location;lat;lon;timestamp;P1;durP1;ratioP1;P2;durP2;ratioP2
4808;SDS011;2418;49.930;8.606;2022-12-28T00:00:21;6.47;;;5.97;;
4808;SDS011;2418;49.930;8.606;2022-12-28T00:02:46;11.57;;;6.53;;
4808;SDS011;2418;49.930;8.606;2022-12-28T00:05:12;8.27;;;6.82;;
4808;SDS011;2418;49.930;8.606;2022-12-28T00:07:37;15.00;;;6.65;;
4808;SDS011;2418;49.930;8.606;2022-12-28T00:10:03;10.32;;;7.10;;
4808;SDS011;2418;49.930;8.606;2022-12-28T00:12:29;7.80;;;6.15;;
4808;SDS011;2418;49.930;8.606;2022-12-28T00:14:56;7.50;;;6.28;;
4808;SDS011;2418;49.930;8.606;2022-12-28T00:17:23;11.95;;;6.85;;
4808;SDS011;2418;49.930;8.606;2022-12-28T00:19:48;7.40;;;6.70;;
4808;SDS011;2418;49.930;8.606;2022-12-28T00:22:14;6.90;;;6.20;;
4808;SDS011;2418;49.930;8.606;2022-12-28T00:24:39;13.00;;;6.87;;
4808;SDS011;2418;49.930;8.606;2022-12-28T00:27:05;11.02;;;7.10;;
4808;SDS011;2418;49.930;8.606;2022-12-28T00:29:31;13.75;;;7.13;;
4808;SDS011;2418;49.930;8.606;2022-12-28T00:31:57;11.40;;;7.15;;
4808;SDS011;2418;49.930;8.606;2022-12-28T00:34:22;11.85;;;7.50;;
4808;SDS011;2418;49.930;8.606;2022-12-28T00:36:51;13.07;;;7.80;;
4808;SDS011;2418;49.930;8.606;2022-12-28T00:39:18;14.23;;;8.33;;
4808;SDS011;2418;49.930;8.606;2022-12-28T00:41:44;13.15;;;7.60;;
4808;SDS011;2418;49.930;8.606;2022-12-28T00:44:09;11.13;;;7.70;;
4808;SDS011;2418;49.930;8.606;2022-12-28T00:46:35;12.95;;;7.40;;
4808;SDS011;2418;49.930;8.606;2022-12-28T00:49:00;17.08;;;9.02;;
4808;SDS011;2418;49.930;8.606;2022-12-28T00:51:26;10.70;;;7.90;;
4808;SDS011;2418;49.930;8.606;2022-12-28T00:53:52;11.20;;;8.37;;
4808;SDS011;2418;49.930;8.606;2022-12-28T00:56:18;11.20;;;8.87;;
4808;SDS011;2418;49.930;8.606;2022-12-28T00:58:45;12.35;;;8.70;;
4808;SDS011;2418;49.930;8.606;2022-12-28T01:01:15;15.07;;;8.60;;
4808;SDS011;2418;49.930;8.606;2022-12-28T01:03:43;17.50;;;9.93;;
4808;SDS011;2418;49.930;8.606;2022-12-28T01:06:09;17.15;;;9.70;;
4808;SDS011;2418;49.930;8.606;2022-12-28T01:08:37;12.20;;;9.13;;
4808;SDS011;2418;49.930;8.606;2022-12-28T01:11:07;12.75;;;9.77;;
4808;SDS011;2418;49.930;8.606;2022-12-28T01:13:44;14.82;;;9.93;;
4808;SDS011;2418;49.930;8.606;2022-12-28T01:18:39;12.65;;;9.60;;
4808;SDS011;2418;49.930;8.606;2022-12-28T01:21:16;12.30;;;9.82;;
4808;SDS011;2418;49.930;8.606;2022-12-28T01:23:44;15.07;;;10.23;;
4808;SDS011;2418;49.930;8.606;2022-12-28T01:26:11;14.30;;;10.23;;
4808;SDS011;2418;49.930;8.606;2022-12-28T01:28:36;14.10;;;9.90;;
4808;SDS011;2418;49.930;8.606;2022-12-28T01:31:03;16.50;;;9.97;;
4808;SDS011;2418;49.930;8.606;2022-12-28T01:33:30;12.88;;;9.98;;
4808;SDS011;2418;49.930;8.606;2022-12-28T01:35:56;11.77;;;10.20;;
4808;SDS011;2418;49.930;8.606;2022-12-28T01:38:21;11.88;;;9.70;;
4808;SDS011;2418;49.930;8.606;2022-12-28T01:40:47;12.48;;;9.35;;
4808;SDS011;2418;49.930;8.606;2022-12-28T01:43:12;15.07;;;9.55;;
4808;SDS011;2418;49.930;8.606;2022-12-28T01:45:38;13.50;;;9.43;;
4808;SDS011;2418;49.930;8.606;2022-12-28T01:48:06;12.55;;;9.38;;
4808;SDS011;2418;49.930;8.606;2022-12-28T01:50:44;12.45;;;9.10;;
4808;SDS011;2418;49.930;8.606;2022-12-28T01:53:09;16.23;;;9.20;;
4808;SDS011;2418;49.930;8.606;2022-12-28T01:55:35;14.53;;;9.20;;
4808;SDS011;2418;49.930;8.606;2022-12-28T01:58:12;16.08;;;9.25;;
4808;SDS011;2418;49.930;8.606;2022-12-28T02:00:44;11.37;;;7.43;;
4808;SDS011;2418;49.930;8.606;2022-12-28T02:03:10;12.33;;;8.20;;
4808;SDS011;2418;49.930;8.606;2022-12-28T02:05:41;12.80;;;8.02;;
4808;SDS011;2418;49.930;8.606;2022-12-28T02:08:17;9.25;;;6.80;;
4808;SDS011;2418;49.930;8.606;2022-12-28T02:10:50;12.88;;;7.90;;
4808;SDS011;2418;49.930;8.606;2022-12-28T02:13:17;9.98;;;7.20;;
4808;SDS011;2418;49.930;8.606;2022-12-28T02:15:44;18.75;;;7.45;;
4808;SDS011;2418;49.930;8.606;2022-12-28T02:18:10;10.32;;;7.15;;
4808;SDS011;2418;49.930;8.606;2022-12-28T02:23:35;8.38;;;6.72;;
4808;SDS011;2418;49.930;8.606;2022-12-28T02:26:19;10.50;;;6.93;;
4808;SDS011;2418;49.930;8.606;2022-12-28T02:31:55;10.80;;;6.97;;
4808;SDS011;2418;49.930;8.606;2022-12-28T02:40:12;9.13;;;6.43;;
4808;SDS011;2418;49.930;8.606;2022-12-28T02:42:42;6.80;;;6.05;;
4808;SDS011;2418;49.930;8.606;2022-12-28T02:45:28;9.33;;;6.77;;
4808;SDS011;2418;49.930;8.606;2022-12-28T02:48:22;7.22;;;6.70;;
4808;SDS011;2418;49.930;8.606;2022-12-28T03:00:14;7.35;;;6.55;;
4808;SDS011;2418;49.930;8.606;2022-12-28T03:02:58;10.48;;;7.05;;
4808;SDS011;2418;49.930;8.606;2022-12-28T03:08:43;8.85;;;7.18;;
4808;SDS011;2418;49.930;8.606;2022-12-28T03:11:28;8.07;;;7.30;;
4808;SDS011;2418;49.930;8.606;2022-12-28T03:14:02;9.63;;;7.32;;
4808;SDS011;2418;49.930;8.606;2022-12-28T03:16:33;8.15;;;7.35;;
4808;SDS011;2418;49.930;8.606;2022-12-28T03:19:20;8.57;;;7.40;;
4808;SDS011;2418;49.930;8.606;2022-12-28T03:22:09;10.43;;;7.80;;
4808;SDS011;2418;49.930;8.606;2022-12-28T03:24:56;17.33;;;8.30;;
4808;SDS011;2418;49.930;8.606;2022-12-28T03:27:44;8.00;;;7.20;;
4808;SDS011;2418;49.930;8.606;2022-12-28T03:30:30;9.45;;;7.45;;
4808;SDS011;2418;49.930;8.606;2022-12-28T03:33:17;11.13;;;7.70;;
4808;SDS011;2418;49.930;8.606;2022-12-28T03:35:48;9.70;;;8.25;;
4808;SDS011;2418;49.930;8.606;2022-12-28T03:38:24;9.00;;;8.10;;
4808;SDS011;2418;49.930;8.606;2022-12-28T03:41:05;9.63;;;7.70;;
4808;SDS011;2418;49.930;8.606;2022-12-28T03:43:48;13.02;;;7.90;;
4808;SDS011;2418;49.930;8.606;2022-12-28T03:48:44;10.18;;;8.27;;
4808;SDS011;2418;49.930;8.606;2022-12-28T03:51:12;10.18;;;7.80;;
4808;SDS011;2418;49.930;8.606;2022-12-28T03:53:41;11.70;;;8.32;;
4808;SDS011;2418;49.930;8.606;2022-12-28T03:56:09;10.75;;;8.10;;
4808;SDS011;2418;49.930;8.606;2022-12-28T03:58:37;9.57;;;8.32;;
4808;SDS011;2418;49.930;8.606;2022-12-28T04:01:02;9.70;;;8.18;;
4808;SDS011;2418;49.930;8.606;2022-12-28T04:03:28;8.00;;;7.40;;
4808;SDS011;2418;49.930;8.606;2022-12-28T04:05:54;8.32;;;7.60;;
4808;SDS011;2418;49.930;8.606;2022-12-28T04:08:20;14.97;;;8.53;;
4808;SDS011;2418;49.930;8.606;2022-12-28T04:10:45;12.10;;;7.77;;
4808;SDS011;2418;49.930;8.606;2022-12-28T04:13:11;9.60;;;7.40;;
4808;SDS011;2418;49.930;8.606;2022-12-28T04:15:36;8.83;;;7.77;;
4808;SDS011;2418;49.930;8.606;2022-12-28T04:18:02;8.10;;;7.30;;
4808;SDS011;2418;49.930;8.606;2022-12-28T04:20:28;7.30;;;6.70;;
4808;SDS011;2418;49.930;8.606;2022-12-28T04:22:53;7.37;;;6.77;;
4808;SDS011;2418;49.930;8.606;2022-12-28T04:25:19;7.27;;;6.40;;
4808;SDS011;2418;49.930;8.606;2022-12-28T04:27:44;12.33;;;7.07;;
4808;SDS011;2418;49.930;8.606;2022-12-28T04:30:10;9.47;;;6.40;;
4808;SDS011;2418;49.930;8.606;2022-12-28T04:32:36;8.15;;;6.20;;
4808;SDS011;2418;49.930;8.606;2022-12-28T04:35:01;8.30;;;6.40;;
4808;SDS011;2418;49.930;8.606;2022-12-28T04:37:27;6.97;;;6.28;;
4808;SDS011;2418;49.930;8.606;2022-12-28T04:39:53;6.30;;;5.70;;
4808;SDS011;2418;49.930;8.606;2022-12-28T04:42:18;6.30;;;5.80;;
4808;SDS011;2418;49.930;8.606;2022-12-28T04:44:44;6.60;;;5.68;;
4808;SDS011;2418;49.930;8.606;2022-12-28T04:47:09;8.20;;;6.20;;
4808;SDS011;2418;49.930;8.606;2022-12-28T04:49:35;5.78;;;5.30;;
4808;SDS011;2418;49.930;8.606;2022-12-28T04:52:00;6.40;;;5.80;;
4808;SDS011;2418;49.930;8.606;2022-12-28T04:54:26;6.35;;;5.75;;
4808;SDS011;2418;49.930;8.606;2022-12-28T04:56:51;5.85;;;5.45;;
4808;SDS011;2418;49.930;8.606;2022-12-28T04:59:17;7.60;;;5.70;;
4808;SDS011;2418;49.930;8.606;2022-12-28T05:01:42;5.70;;;5.20;;
4808;SDS011;2418;49.930;8.606;2022-12-28T05:04:08;6.20;;;5.47;;
4808;SDS011;2418;49.930;8.606;2022-12-28T05:06:34;5.72;;;5.13;;
4808;SDS011;2418;49.930;8.606;2022-12-28T05:08:59;6.20;;;5.60;;
4808;SDS011;2418;49.930;8.606;2022-12-28T05:11:26;5.93;;;5.43;;
4808;SDS011;2418;49.930;8.606;2022-12-28T05:13:53;26.77;;;5.95;;
4808;SDS011;2418;49.930;8.606;2022-12-28T05:16:20;5.60;;;4.78;;
4808;SDS011;2418;49.930;8.606;2022-12-28T05:18:46;4.93;;;4.72;;
4808;SDS011;2418;49.930;8.606;2022-12-28T05:21:13;5.03;;;4.60;;
4808;SDS011;2418;49.930;8.606;2022-12-28T05:23:44;5.10;;;4.60;;
4808;SDS011;2418;49.930;8.606;2022-12-28T05:26:11;4.47;;;4.20;;
4808;SDS011;2418;49.930;8.606;2022-12-28T05:28:38;5.05;;;4.60;;
4808;SDS011;2418;49.930;8.606;2022-12-28T05:31:05;4.30;;;4.10;;
4808;SDS011;2418;49.930;8.606;2022-12-28T05:33:34;4.70;;;4.40;;
4808;SDS011;2418;49.930;8.606;2022-12-28T05:36:04;4.40;;;3.90;;
4808;SDS011;2418;49.930;8.606;2022-12-28T05:38:31;4.32;;;4.03;;
4808;SDS011;2418;49.930;8.606;2022-12-28T05:41:07;4.45;;;4.15;;
4808;SDS011;2418;49.930;8.606;2022-12-28T05:43:40;4.72;;;4.30;;
4808;SDS011;2418;49.930;8.606;2022-12-28T05:46:07;5.65;;;5.22;;
4808;SDS011;2418;49.930;8.606;2022-12-28T05:48:35;8.77;;;7.00;;
4808;SDS011;2418;49.930;8.606;2022-12-28T05:51:03;5.00;;;4.60;;
4808;SDS011;2418;49.930;8.606;2022-12-28T05:53:30;7.03;;;5.32;;
4808;SDS011;2418;49.930;8.606;2022-12-28T05:56:00;5.20;;;4.90;;
4808;SDS011;2418;49.930;8.606;2022-12-28T05:58:26;6.10;;;4.40;;
4808;SDS011;2418;49.930;8.606;2022-12-28T06:00:52;4.50;;;4.10;;
4808;SDS011;2418;49.930;8.606;2022-12-28T06:03:17;4.20;;;3.77;;
4808;SDS011;2418;49.930;8.606;2022-12-28T06:05:43;6.73;;;4.13;;
4808;SDS011;2418;49.930;8.606;2022-12-28T06:08:08;4.60;;;3.80;;
4808;SDS011;2418;49.930;8.606;2022-12-28T06:10:34;4.47;;;4.07;;
4808;SDS011;2418;49.930;8.606;2022-12-28T06:13:00;5.30;;;4.40;;
4808;SDS011;2418;49.930;8.606;2022-12-28T06:15:25;4.35;;;4.15;;
4808;SDS011;2418;49.930;8.606;2022-12-28T06:17:51;4.50;;;4.30;;
4808;SDS011;2418;49.930;8.606;2022-12-28T06:20:17;5.30;;;4.80;;
4808;SDS011;2418;49.930;8.606;2022-12-28T06:22:42;4.60;;;4.20;;
4808;SDS011;2418;49.930;8.606;2022-12-28T06:25:08;5.03;;;4.10;;
4808;SDS011;2418;49.930;8.606;2022-12-28T06:27:34;6.00;;;4.40;;
4808;SDS011;2418;49.930;8.606;2022-12-28T06:29:59;9.10;;;6.80;;
4808;SDS011;2418;49.930;8.606;2022-12-28T06:32:25;5.40;;;5.10;;
4808;SDS011;2418;49.930;8.606;2022-12-28T06:34:50;4.13;;;3.93;;
4808;SDS011;2418;49.930;8.606;2022-12-28T06:37:16;4.80;;;4.50;;
4808;SDS011;2418;49.930;8.606;2022-12-28T06:39:41;10.10;;;4.65;;
4808;SDS011;2418;49.930;8.606;2022-12-28T06:42:07;4.97;;;4.55;;
4808;SDS011;2418;49.930;8.606;2022-12-28T06:44:32;3.87;;;3.67;;
4808;SDS011;2418;49.930;8.606;2022-12-28T06:46:58;6.43;;;4.27;;
4808;SDS011;2418;49.930;8.606;2022-12-28T06:49:23;5.10;;;4.20;;
4808;SDS011;2418;49.930;8.606;2022-12-28T06:51:49;3.80;;;3.60;;
4808;SDS011;2418;49.930;8.606;2022-12-28T06:54:14;5.03;;;4.63;;
4808;SDS011;2418;49.930;8.606;2022-12-28T06:56:40;5.30;;;4.90;;
4808;SDS011;2418;49.930;8.606;2022-12-28T06:59:05;5.20;;;4.80;;
4808;SDS011;2418;49.930;8.606;2022-12-28T07:01:33;5.40;;;4.80;;
4808;SDS011;2418;49.930;8.606;2022-12-28T07:04:01;4.37;;;3.97;;
4808;SDS011;2418;49.930;8.606;2022-12-28T07:06:28;4.18;;;3.78;;
4808;SDS011;2418;49.930;8.606;2022-12-28T07:09:01;5.82;;;5.13;;
4808;SDS011;2418;49.930;8.606;2022-12-28T07:11:29;4.77;;;4.37;;
4808;SDS011;2418;49.930;8.606;2022-12-28T07:13:55;4.60;;;4.30;;
4808;SDS011;2418;49.930;8.606;2022-12-28T07:16:21;4.25;;;3.90;;
4808;SDS011;2418;49.930;8.606;2022-12-28T07:18:47;4.10;;;3.80;;
4808;SDS011;2418;49.930;8.606;2022-12-28T07:23:59;5.93;;;4.90;;
4808;SDS011;2418;49.930;8.606;2022-12-28T07:26:26;5.35;;;4.95;;
4808;SDS011;2418;49.930;8.606;2022-12-28T07:28:54;4.80;;;3.78;;
4808;SDS011;2418;49.930;8.606;2022-12-28T07:31:21;8.40;;;4.10;;
4808;SDS011;2418;49.930;8.606;2022-12-28T07:33:49;6.32;;;4.35;;
4808;SDS011;2418;49.930;8.606;2022-12-28T07:36:16;5.70;;;3.60;;
4808;SDS011;2418;49.930;8.606;2022-12-28T07:38:44;6.40;;;5.47;;
4808;SDS011;2418;49.930;8.606;2022-12-28T07:41:10;21.30;;;10.75;;
4808;SDS011;2418;49.930;8.606;2022-12-28T07:43:36;18.90;;;9.55;;
4808;SDS011;2418;49.930;8.606;2022-12-28T07:46:02;3.50;;;3.30;;
4808;SDS011;2418;49.930;8.606;2022-12-28T07:48:30;5.40;;;4.50;;
4808;SDS011;2418;49.930;8.606;2022-12-28T07:50:56;8.25;;;4.60;;
4808;SDS011;2418;49.930;8.606;2022-12-28T07:53:21;4.25;;;3.45;;
4808;SDS011;2418;49.930;8.606;2022-12-28T07:55:56;4.10;;;3.70;;
4808;SDS011;2418;49.930;8.606;2022-12-28T07:58:24;3.88;;;3.38;;
4808;SDS011;2418;49.930;8.606;2022-12-28T08:00:50;3.08;;;2.92;;
4808;SDS011;2418;49.930;8.606;2022-12-28T08:03:17;7.50;;;2.93;;
4808;SDS011;2418;49.930;8.606;2022-12-28T08:05:43;4.35;;;3.08;;
4808;SDS011;2418;49.930;8.606;2022-12-28T08:08:08;3.00;;;2.80;;
4808;SDS011;2418;49.930;8.606;2022-12-28T08:10:34;3.05;;;2.85;;
4808;SDS011;2418;49.930;8.606;2022-12-28T08:13:00;5.53;;;2.90;;
4808;SDS011;2418;49.930;8.606;2022-12-28T08:15:26;5.05;;;2.53;;
4808;SDS011;2418;49.930;8.606;2022-12-28T08:17:52;2.70;;;2.60;;
4808;SDS011;2418;49.930;8.606;2022-12-28T08:20:18;3.40;;;2.67;;
4808;SDS011;2418;49.930;8.606;2022-12-28T08:22:44;2.97;;;2.50;;
4808;SDS011;2418;49.930;8.606;2022-12-28T08:25:10;3.33;;;3.13;;
4808;SDS011;2418;49.930;8.606;2022-12-28T08:27:36;4.40;;;4.10;;
4808;SDS011;2418;49.930;8.606;2022-12-28T08:30:01;4.80;;;3.80;;
4808;SDS011;2418;49.930;8.606;2022-12-28T08:32:27;10.65;;;6.38;;
4808;SDS011;2418;49.930;8.606;2022-12-28T08:34:53;9.90;;;5.53;;
4808;SDS011;2418;49.930;8.606;2022-12-28T08:37:18;6.50;;;5.77;;
4808;SDS011;2418;49.930;8.606;2022-12-28T08:39:44;5.73;;;4.93;;
4808;SDS011;2418;49.930;8.606;2022-12-28T08:42:09;6.30;;;4.50;;
4808;SDS011;2418;49.930;8.606;2022-12-28T08:44:35;6.60;;;6.00;;
4808;SDS011;2418;49.930;8.606;2022-12-28T08:47:00;6.63;;;4.10;;
4808;SDS011;2418;49.930;8.606;2022-12-28T08:49:26;4.63;;;4.32;;
4808;SDS011;2418;49.930;8.606;2022-12-28T08:51:51;4.00;;;3.70;;
4808;SDS011;2418;49.930;8.606;2022-12-28T08:54:17;5.67;;;3.60;;
4808;SDS011;2418;49.930;8.606;2022-12-28T08:56:43;3.80;;;3.50;;
4808;SDS011;2418;49.930;8.606;2022-12-28T08:59:11;4.03;;;3.40;;
4808;SDS011;2418;49.930;8.606;2022-12-28T09:01:39;5.25;;;3.13;;
4808;SDS011;2418;49.930;8.606;2022-12-28T09:04:05;3.40;;;2.83;;
4808;SDS011;2418;49.930;8.606;2022-12-28T09:06:36;4.57;;;3.28;;
4808;SDS011;2418;49.930;8.606;2022-12-28T09:09:03;5.70;;;2.97;;
4808;SDS011;2418;49.930;8.606;2022-12-28T09:11:31;3.30;;;3.00;;
4808;SDS011;2418;49.930;8.606;2022-12-28T09:13:57;5.70;;;2.80;;
4808;SDS011;2418;49.930;8.606;2022-12-28T09:16:25;7.20;;;2.95;;
4808;SDS011;2418;49.930;8.606;2022-12-28T09:18:55;2.90;;;2.70;;
4808;SDS011;2418;49.930;8.606;2022-12-28T09:21:22;2.30;;;2.20;;
4808;SDS011;2418;49.930;8.606;2022-12-28T09:23:49;5.63;;;3.15;;
4808;SDS011;2418;49.930;8.606;2022-12-28T09:26:19;2.97;;;2.77;;
4808;SDS011;2418;49.930;8.606;2022-12-28T09:28:50;4.30;;;2.50;;
4808;SDS011;2418;49.930;8.606;2022-12-28T09:31:17;6.13;;;2.90;;
4808;SDS011;2418;49.930;8.606;2022-12-28T09:33:44;3.00;;;2.72;;
4808;SDS011;2418;49.930;8.606;2022-12-28T09:36:36;2.65;;;2.47;;
4808;SDS011;2418;49.930;8.606;2022-12-28T09:39:07;2.83;;;1.90;;
4808;SDS011;2418;49.930;8.606;2022-12-28T09:46:58;3.72;;;2.70;;
4808;SDS011;2418;49.930;8.606;2022-12-28T09:49:37;2.70;;;2.13;;
4808;SDS011;2418;49.930;8.606;2022-12-28T09:52:32;2.40;;;2.30;;
4808;SDS011;2418;49.930;8.606;2022-12-28T09:55:11;2.70;;;2.50;;
4808;SDS011;2418;49.930;8.606;2022-12-28T09:57:46;6.90;;;2.30;;
4808;SDS011;2418;49.930;8.606;2022-12-28T10:00:15;3.20;;;2.40;;
4808;SDS011;2418;49.930;8.606;2022-12-28T10:02:44;3.40;;;3.00;;
4808;SDS011;2418;49.930;8.606;2022-12-28T10:05:13;4.25;;;2.75;;
4808;SDS011;2418;49.930;8.606;2022-12-28T10:07:39;3.70;;;3.42;;
4808;SDS011;2418;49.930;8.606;2022-12-28T10:10:04;4.60;;;3.47;;
4808;SDS011;2418;49.930;8.606;2022-12-28T10:12:30;4.82;;;4.30;;
4808;SDS011;2418;49.930;8.606;2022-12-28T10:14:56;4.40;;;3.10;;
4808;SDS011;2418;49.930;8.606;2022-12-28T10:17:27;3.90;;;2.80;;
4808;SDS011;2418;49.930;8.606;2022-12-28T10:19:55;3.17;;;2.97;;
4808;SDS011;2418;49.930;8.606;2022-12-28T10:22:22;2.90;;;2.70;;
4808;SDS011;2418;49.930;8.606;2022-12-28T10:24:50;2.40;;;2.30;;
4808;SDS011;2418;49.930;8.606;2022-12-28T10:29:46;3.22;;;2.30;;
4808;SDS011;2418;49.930;8.606;2022-12-28T10:32:16;2.20;;;2.10;;
4808;SDS011;2418;49.930;8.606;2022-12-28T10:34:53;3.38;;;2.70;;
4808;SDS011;2418;49.930;8.606;2022-12-28T10:37:21;2.70;;;2.30;;
4808;SDS011;2418;49.930;8.606;2022-12-28T10:39:52;4.30;;;2.22;;
4808;SDS011;2418;49.930;8.606;2022-12-28T10:42:31;5.25;;;2.05;;
4808;SDS011;2418;49.930;8.606;2022-12-28T10:45:04;2.30;;;1.70;;
4808;SDS011;2418;49.930;8.606;2022-12-28T10:47:40;8.75;;;4.22;;
4808;SDS011;2418;49.930;8.606;2022-12-28T10:50:35;6.18;;;3.95;;
4808;SDS011;2418;49.930;8.606;2022-12-28T10:53:30;5.95;;;5.20;;
4808;SDS011;2418;49.930;8.606;2022-12-28T10:58:47;7.97;;;5.40;;
4808;SDS011;2418;49.930;8.606;2022-12-28T11:01:32;14.32;;;7.40;;
4808;SDS011;2418;49.930;8.606;2022-12-28T11:04:00;7.43;;;5.57;;
4808;SDS011;2418;49.930;8.606;2022-12-28T11:06:29;4.80;;;3.47;;
4808;SDS011;2418;49.930;8.606;2022-12-28T11:09:01;3.47;;;3.38;;
4808;SDS011;2418;49.930;8.606;2022-12-28T11:11:29;3.70;;;2.50;;
4808;SDS011;2418;49.930;8.606;2022-12-28T11:13:58;3.00;;;2.70;;
4808;SDS011;2418;49.930;8.606;2022-12-28T11:16:30;2.75;;;2.55;;
4808;SDS011;2418;49.930;8.606;2022-12-28T11:19:00;3.50;;;2.40;;
4808;SDS011;2418;49.930;8.606;2022-12-28T11:21:25;2.30;;;2.10;;
4808;SDS011;2418;49.930;8.606;2022-12-28T11:23:51;2.63;;;1.97;;
4808;SDS011;2418;49.930;8.606;2022-12-28T11:26:17;3.40;;;1.80;;
4808;SDS011;2418;49.930;8.606;2022-12-28T11:28:45;2.95;;;1.77;;
4808;SDS011;2418;49.930;8.606;2022-12-28T11:31:18;2.90;;;2.00;;
4808;SDS011;2418;49.930;8.606;2022-12-28T11:33:58;2.77;;;2.50;;
4808;SDS011;2418;49.930;8.606;2022-12-28T11:36:29;2.40;;;1.77;;
4808;SDS011;2418;49.930;8.606;2022-12-28T11:38:57;2.80;;;1.50;;
4808;SDS011;2418;49.930;8.606;2022-12-28T11:41:42;2.00;;;1.77;;
4808;SDS011;2418;49.930;8.606;2022-12-28T11:44:18;5.00;;;2.33;;
4808;SDS011;2418;49.930;8.606;2022-12-28T11:46:58;2.50;;;2.30;;
4808;SDS011;2418;49.930;8.606;2022-12-28T11:49:25;2.90;;;2.35;;
4808;SDS011;2418;49.930;8.606;2022-12-28T11:54:42;2.42;;;1.83;;
4808;SDS011;2418;49.930;8.606;2022-12-28T12:02:44;2.90;;;2.00;;
4808;SDS011;2418;49.930;8.606;2022-12-28T12:08:35;2.97;;;1.92;;
4808;SDS011;2418;49.930;8.606;2022-12-28T12:10:47;2.88;;;1.60;;
4808;SDS011;2418;49.930;8.606;2022-12-28T12:15:53;1.90;;;1.80;;
4808;SDS011;2418;49.930;8.606;2022-12-28T12:18:24;2.58;;;1.88;;
4808;SDS011;2418;49.930;8.606;2022-12-28T12:23:24;5.22;;;4.15;;
4808;SDS011;2418;49.930;8.606;2022-12-28T12:26:12;3.60;;;3.00;;
4808;SDS011;2418;49.930;8.606;2022-12-28T12:28:51;2.92;;;2.72;;
4808;SDS011;2418;49.930;8.606;2022-12-28T12:31:37;2.22;;;2.10;;
4808;SDS011;2418;49.930;8.606;2022-12-28T12:34:32;3.00;;;2.80;;
4808;SDS011;2418;49.930;8.606;2022-12-28T12:42:31;2.78;;;2.58;;
4808;SDS011;2418;49.930;8.606;2022-12-28T12:45:21;2.65;;;2.38;;
4808;SDS011;2418;49.930;8.606;2022-12-28T12:48:04;11.15;;;8.20;;
4808;SDS011;2418;49.930;8.606;2022-12-28T12:56:24;25.83;;;15.10;;
4808;SDS011;2418;49.930;8.606;2022-12-28T13:01:43;58.97;;;31.25;;
4808;SDS011;2418;49.930;8.606;2022-12-28T13:04:22;19.23;;;13.75;;
4808;SDS011;2418;49.930;8.606;2022-12-28T13:06:51;14.43;;;12.80;;
4808;SDS011;2418;49.930;8.606;2022-12-28T13:09:27;6.30;;;5.75;;
4808;SDS011;2418;49.930;8.606;2022-12-28T13:11:54;5.32;;;4.93;;
4808;SDS011;2418;49.930;8.606;2022-12-28T13:14:22;5.80;;;5.22;;
4808;SDS011;2418;49.930;8.606;2022-12-28T13:16:49;5.55;;;5.07;;
4808;SDS011;2418;49.930;8.606;2022-12-28T13:19:18;4.63;;;4.05;;
4808;SDS011;2418;49.930;8.606;2022-12-28T13:21:47;7.68;;;5.20;;
4808;SDS011;2418;49.930;8.606;2022-12-28T13:24:30;2.95;;;2.75;;
4808;SDS011;2418;49.930;8.606;2022-12-28T13:27:01;3.17;;;2.88;;
4808;SDS011;2418;49.930;8.606;2022-12-28T13:29:31;4.50;;;4.10;;
4808;SDS011;2418;49.930;8.606;2022-12-28T13:31:59;6.90;;;6.30;;
4808;SDS011;2418;49.930;8.606;2022-12-28T13:34:28;4.03;;;3.83;;
4808;SDS011;2418;49.930;8.606;2022-12-28T13:36:59;4.50;;;3.10;;
4808;SDS011;2418;49.930;8.606;2022-12-28T13:39:28;5.88;;;3.35;;
4808;SDS011;2418;49.930;8.606;2022-12-28T13:41:59;3.50;;;2.53;;
4808;SDS011;2418;49.930;8.606;2022-12-28T13:44:38;3.50;;;2.15;;
4808;SDS011;2418;49.930;8.606;2022-12-28T13:47:09;2.30;;;2.20;;
4808;SDS011;2418;49.930;8.606;2022-12-28T13:50:09;2.38;;;2.28;;
4808;SDS011;2418;49.930;8.606;2022-12-28T13:52:41;4.60;;;2.38;;
4808;SDS011;2418;49.930;8.606;2022-12-28T13:55:10;5.35;;;2.50;;
4808;SDS011;2418;49.930;8.606;2022-12-28T13:57:41;3.00;;;2.50;;
4808;SDS011;2418;49.930;8.606;2022-12-28T14:00:09;4.18;;;2.50;;
4808;SDS011;2418;49.930;8.606;2022-12-28T14:02:35;6.70;;;4.30;;
4808;SDS011;2418;49.930;8.606;2022-12-28T14:05:05;4.45;;;2.70;;
4808;SDS011;2418;49.930;8.606;2022-12-28T14:07:32;2.95;;;2.65;;
4808;SDS011;2418;49.930;8.606;2022-12-28T14:09:59;2.60;;;2.45;;
4808;SDS011;2418;49.930;8.606;2022-12-28T14:12:26;3.33;;;2.90;;
4808;SDS011;2418;49.930;8.606;2022-12-28T14:14:51;5.07;;;3.60;;
4808;SDS011;2418;49.930;8.606;2022-12-28T14:17:18;4.68;;;3.50;;
4808;SDS011;2418;49.930;8.606;2022-12-28T14:19:44;6.72;;;4.00;;
4808;SDS011;2418;49.930;8.606;2022-12-28T14:22:26;2.97;;;2.78;;
4808;SDS011;2418;49.930;8.606;2022-12-28T14:24:59;2.67;;;2.28;;
4808;SDS011;2418;49.930;8.606;2022-12-28T14:27:27;2.90;;;2.70;;
4808;SDS011;2418;49.930;8.606;2022-12-28T14:29:54;3.40;;;3.10;;
4808;SDS011;2418;49.930;8.606;2022-12-28T14:32:20;3.40;;;3.10;;
4808;SDS011;2418;49.930;8.606;2022-12-28T14:34:46;3.33;;;3.03;;
4808;SDS011;2418;49.930;8.606;2022-12-28T14:40:09;2.65;;;2.50;;
4808;SDS011;2418;49.930;8.606;2022-12-28T14:42:47;4.18;;;3.88;;
4808;SDS011;2418;49.930;8.606;2022-12-28T14:45:21;17.05;;;9.30;;
4808;SDS011;2418;49.930;8.606;2022-12-28T14:47:58;3.67;;;3.00;;
4808;SDS011;2418;49.930;8.606;2022-12-28T14:50:24;2.80;;;2.60;;
4808;SDS011;2418;49.930;8.606;2022-12-28T14:53:04;2.70;;;2.50;;
4808;SDS011;2418;49.930;8.606;2022-12-28T14:55:40;2.33;;;2.10;;
4808;SDS011;2418;49.930;8.606;2022-12-28T14:58:19;2.28;;;2.10;;
4808;SDS011;2418;49.930;8.606;2022-12-28T15:00:57;3.25;;;1.98;;
4808;SDS011;2418;49.930;8.606;2022-12-28T15:03:25;3.00;;;2.10;;
4808;SDS011;2418;49.930;8.606;2022-12-28T15:05:53;3.30;;;2.85;;
4808;SDS011;2418;49.930;8.606;2022-12-28T15:08:20;2.17;;;1.98;;
4808;SDS011;2418;49.930;8.606;2022-12-28T15:10:56;2.30;;;2.10;;
4808;SDS011;2418;49.930;8.606;2022-12-28T15:13:24;2.20;;;2.20;;
4808;SDS011;2418;49.930;8.606;2022-12-28T15:15:54;2.00;;;1.70;;
4808;SDS011;2418;49.930;8.606;2022-12-28T15:18:21;3.00;;;1.60;;
4808;SDS011;2418;49.930;8.606;2022-12-28T15:20:47;2.10;;;2.05;;
4808;SDS011;2418;49.930;8.606;2022-12-28T15:23:13;4.50;;;1.90;;
4808;SDS011;2418;49.930;8.606;2022-12-28T15:25:39;2.40;;;2.20;;
4808;SDS011;2418;49.930;8.606;2022-12-28T15:28:05;2.10;;;1.63;;
4808;SDS011;2418;49.930;8.606;2022-12-28T15:30:30;3.30;;;2.07;;
4808;SDS011;2418;49.930;8.606;2022-12-28T15:32:56;3.00;;;1.90;;
4808;SDS011;2418;49.930;8.606;2022-12-28T15:35:21;4.10;;;1.70;;
4808;SDS011;2418;49.930;8.606;2022-12-28T15:37:47;1.77;;;1.67;;
4808;SDS011;2418;49.930;8.606;2022-12-28T15:40:12;2.00;;;1.80;;
4808;SDS011;2418;49.930;8.606;2022-12-28T15:42:38;2.03;;;1.92;;
4808;SDS011;2418;49.930;8.606;2022-12-28T15:45:07;2.20;;;1.80;;
4808;SDS011;2418;49.930;8.606;2022-12-28T15:47:33;2.20;;;1.70;;
4808;SDS011;2418;49.930;8.606;2022-12-28T15:49:59;2.75;;;1.50;;
4808;SDS011;2418;49.930;8.606;2022-12-28T15:52:27;3.65;;;3.10;;
4808;SDS011;2418;49.930;8.606;2022-12-28T15:54:54;5.65;;;4.80;;
4808;SDS011;2418;49.930;8.606;2022-12-28T15:57:19;4.73;;;4.53;;
4808;SDS011;2418;49.930;8.606;2022-12-28T15:59:45;4.07;;;3.77;;
4808;SDS011;2418;49.930;8.606;2022-12-28T16:02:11;3.53;;;3.33;;
4808;SDS011;2418;49.930;8.606;2022-12-28T16:04:37;1.90;;;1.80;;
4808;SDS011;2418;49.930;8.606;2022-12-28T16:07:02;2.40;;;2.20;;
4808;SDS011;2418;49.930;8.606;2022-12-28T16:09:28;2.47;;;2.10;;
4808;SDS011;2418;49.930;8.606;2022-12-28T16:11:53;2.00;;;1.83;;
4808;SDS011;2418;49.930;8.606;2022-12-28T16:14:19;3.00;;;1.70;;
4808;SDS011;2418;49.930;8.606;2022-12-28T16:16:45;3.00;;;2.80;;
4808;SDS011;2418;49.930;8.606;2022-12-28T16:19:11;4.80;;;4.40;;
4808;SDS011;2418;49.930;8.606;2022-12-28T16:21:38;2.97;;;2.78;;
4808;SDS011;2418;49.930;8.606;2022-12-28T16:24:04;2.30;;;2.20;;
4808;SDS011;2418;49.930;8.606;2022-12-28T16:26:30;1.52;;;1.40;;
4808;SDS011;2418;49.930;8.606;2022-12-28T16:28:58;2.20;;;2.00;;
4808;SDS011;2418;49.930;8.606;2022-12-28T16:31:25;1.90;;;1.80;;
4808;SDS011;2418;49.930;8.606;2022-12-28T16:33:52;1.60;;;1.60;;
4808;SDS011;2418;49.930;8.606;2022-12-28T16:36:18;2.55;;;2.20;;
4808;SDS011;2418;49.930;8.606;2022-12-28T16:38:44;2.40;;;2.20;;
4808;SDS011;2418;49.930;8.606;2022-12-28T16:41:09;2.15;;;1.42;;